Time;durP1;ratioP1;P1;durP2;ratioP2;P2;SDS_P1;SDS_P2;PMS_P1;PMS_P2;Temp;Humidity;BMP_temperature;BMP_pressure;BME280_temperature;BME280_humidity;BME280_pressure;Samples;Min_cycle;Max_cycle;Signal;HPM_P1;HPM_P2
2021/01/14 00:00:16;;;;;;;5.53;4.57;;;4.60;99.90;;;;;;5072266;28;20201;-85
2021/01/14 00:02:43;;;;;;;7.80;3.95;;;4.60;99.90;;;;;;5073167;28;20288;-84
2021/01/14 00:05:11;;;;;;;6.28;4.47;;;4.50;99.90;;;;;;5073055;28;20355;-86
2021/01/14 00:07:38;;;;;;;5.47;3.78;;;4.60;99.90;;;;;;5073244;28;20309;-83
2021/01/14 00:10:09;;;;;;;4.18;3.72;;;4.60;99.90;;;;;;5072261;28;20268;-83
2021/01/14 00:12:35;;;;;;;6.55;5.00;;;4.60;99.90;;;;;;5073013;28;20636;-85
2021/01/14 00:15:05;;;;;;;4.25;3.28;;;4.50;99.90;;;;;;5072717;28;20300;-87
2021/01/14 00:17:32;;;;;;;9.07;4.70;;;4.50;99.90;;;;;;5071030;28;20209;-89
2021/01/14 00:19:59;;;;;;;3.80;3.45;;;4.50;99.90;;;;;;5073018;28;20301;-85
2021/01/14 00:22:25;;;;;;;4.20;3.38;;;4.50;99.90;;;;;;5073174;28;20292;-85
2021/01/14 00:24:52;;;;;;;3.25;2.95;;;4.50;99.90;;;;;;5072581;28;20244;-85
2021/01/14 00:27:18;;;;;;;3.35;2.60;;;4.50;99.90;;;;;;5072626;28;20267;-86
2021/01/14 00:29:45;;;;;;;2.88;2.53;;;4.50;99.90;;;;;;5073785;28;20233;-91
2021/01/14 00:32:12;;;;;;;8.07;3.30;;;4.40;99.90;;;;;;5083150;28;20205;-87
2021/01/14 00:34:39;;;;;;;4.07;2.65;;;4.30;99.90;;;;;;5083977;28;20229;-87
2021/01/14 00:39:52;;;;;;;4.05;3.25;;;4.40;99.90;;;;;;5077363;28;20247;-89
2021/01/14 00:42:19;;;;;;;4.53;3.85;;;4.40;99.90;;;;;;5077035;28;20779;-89
2021/01/14 00:44:45;;;;;;;2.83;2.50;;;4.40;99.90;;;;;;5086719;28;20261;-86
2021/01/14 00:47:13;;;;;;;4.45;3.63;;;4.40;99.90;;;;;;5094887;28;20287;-89
2021/01/14 00:49:39;;;;;;;3.75;3.00;;;4.40;99.90;;;;;;5096290;28;20201;-89
2021/01/14 00:52:06;;;;;;;5.20;3.30;;;4.40;99.90;;;;;;5096666;28;20292;-90
2021/01/14 00:54:32;;;;;;;4.43;3.08;;;4.40;99.90;;;;;;5096451;28;20216;-88
2021/01/14 00:56:58;;;;;;;3.88;3.08;;;4.40;99.90;;;;;;5096346;28;20283;-87
2021/01/14 00:59:26;;;;;;;3.97;3.47;;;4.40;99.90;;;;;;5096203;28;20292;-88
2021/01/14 01:01:52;;;;;;;3.58;2.90;;;4.30;99.90;;;;;;5094969;28;20205;-89
2021/01/14 01:04:20;;;;;;;4.35;3.20;;;4.30;99.90;;;;;;5095239;28;20274;-89
2021/01/14 01:06:46;;;;;;;4.45;3.75;;;4.30;99.90;;;;;;5095798;28;20209;-87
2021/01/14 01:09:12;;;;;;;3.88;3.58;;;4.40;99.90;;;;;;5095237;28;20304;-86
2021/01/14 01:11:39;;;;;;;4.15;3.75;;;4.30;99.90;;;;;;5095925;28;20296;-87
2021/01/14 01:14:06;;;;;;;5.57;3.00;;;4.30;99.90;;;;;;5095980;28;20291;-86
2021/01/14 01:16:33;;;;;;;4.72;4.18;;;4.30;99.90;;;;;;5094707;28;20292;-87
2021/01/14 01:18:59;;;;;;;5.45;3.28;;;4.40;99.90;;;;;;5095970;28;20723;-87
2021/01/14 01:21:27;;;;;;;3.17;2.83;;;4.30;99.90;;;;;;5095538;28;20279;-85
2021/01/14 01:23:53;;;;;;;4.45;4.05;;;4.20;99.90;;;;;;5095663;28;20232;-86
2021/01/14 01:26:20;;;;;;;5.60;2.88;;;4.20;99.90;;;;;;5098099;27;20334;-86
2021/01/14 01:28:47;;;;;;;2.55;2.35;;;4.20;99.90;;;;;;5095415;28;20268;-89
2021/01/14 01:31:15;;;;;;;4.32;3.28;;;4.30;99.90;;;;;;5094376;28;20287;-86
2021/01/14 01:33:44;;;;;;;5.35;3.97;;;4.40;99.90;;;;;;5095666;28;20634;-90
2021/01/14 01:36:16;;;;;;;4.45;3.10;;;4.40;99.90;;;;;;5094724;28;20620;-90
2021/01/14 01:38:43;;;;;;;3.75;3.30;;;4.30;99.90;;;;;;5095261;28;20209;-87
2021/01/14 01:41:10;;;;;;;4.28;3.15;;;4.30;99.90;;;;;;5095561;28;20240;-87
2021/01/14 01:43:36;;;;;;;3.97;2.80;;;4.30;99.90;;;;;;5096559;28;20730;-88
2021/01/14 01:46:05;;;;;;;3.90;2.90;;;4.30;99.90;;;;;;5094352;28;20727;-88
2021/01/14 01:48:32;;;;;;;3.72;2.97;;;4.20;99.90;;;;;;5094975;28;20292;-87
2021/01/14 01:51:01;;;;;;;3.40;2.75;;;4.30;99.90;;;;;;5094736;28;20290;-86
2021/01/14 01:53:29;;;;;;;5.50;4.38;;;4.40;99.90;;;;;;5094889;28;20201;-87
2021/01/14 01:55:58;;;;;;;3.97;3.10;;;4.40;99.90;;;;;;5095480;28;20754;-87
2021/01/14 01:58:32;;;;;;;4.78;3.05;;;4.40;99.90;;;;;;5095608;28;20205;-85
2021/01/14 02:00:58;;;;;;;3.75;3.15;;;4.30;99.90;;;;;;5093082;28;20283;-86
2021/01/14 02:03:25;;;;;;;5.75;3.65;;;4.30;99.90;;;;;;5094922;28;20239;-88
2021/01/14 02:05:51;;;;;;;3.33;2.90;;;4.30;99.90;;;;;;5095236;28;20255;-85
2021/01/14 02:08:23;;;;;;;6.05;3.70;;;4.30;99.90;;;;;;5094955;28;20200;-88
2021/01/14 02:10:55;;;;;;;4.72;3.63;;;4.30;99.90;;;;;;5095064;28;20244;-86
2021/01/14 02:13:29;;;;;;;3.78;2.55;;;4.30;99.90;;;;;;5094946;28;20291;-87
2021/01/14 02:15:58;;;;;;;4.35;3.35;;;4.30;99.90;;;;;;5093386;28;20295;-89
2021/01/14 02:18:25;;;;;;;4.45;3.90;;;4.30;99.90;;;;;;5094852;28;20289;-86
2021/01/14 02:20:56;;;;;;;3.58;3.28;;;4.30;99.90;;;;;;5094406;28;20209;-87
2021/01/14 02:23:29;;;;;;;4.47;3.22;;;4.30;99.90;;;;;;5094771;28;20244;-89
2021/01/14 02:26:06;;;;;;;5.47;3.55;;;4.30;99.90;;;;;;5094498;28;20235;-88
2021/01/14 02:28:35;;;;;;;3.53;3.17;;;4.30;99.90;;;;;;5094533;28;20315;-86
2021/01/14 02:31:02;;;;;;;6.28;3.10;;;4.30;99.90;;;;;;5092230;28;20295;-89
2021/01/14 02:33:29;;;;;;;6.07;2.95;;;4.20;99.90;;;;;;5091960;28;20228;-87
2021/01/14 02:35:55;;;;;;;3.70;2.95;;;4.30;99.90;;;;;;5094310;28;20283;-87
2021/01/14 02:38:21;;;;;;;4.22;3.30;;;4.30;99.90;;;;;;5094226;28;20668;-86
2021/01/14 02:40:48;;;;;;;4.78;3.00;;;4.30;99.90;;;;;;5093960;28;20204;-87
2021/01/14 02:43:16;;;;;;;4.65;3.60;;;4.20;99.90;;;;;;5094257;28;20205;-90
2021/01/14 02:45:42;;;;;;;4.05;3.45;;;4.30;99.90;;;;;;5092878;28;20224;-87
2021/01/14 02:48:13;;;;;;;4.07;2.50;;;4.30;99.90;;;;;;5094018;28;20768;-89
2021/01/14 02:50:40;;;;;;;5.72;3.92;;;4.20;99.90;;;;;;5094265;28;20283;-89
2021/01/14 02:53:08;;;;;;;3.03;2.72;;;4.20;99.90;;;;;;5094221;28;20201;-87
2021/01/14 02:55:35;;;;;;;4.35;3.90;;;4.20;99.90;;;;;;5094094;28;20232;-91
2021/01/14 02:58:02;;;;;;;4.55;3.92;;;4.20;99.90;;;;;;5094013;28;20296;-87
2021/01/14 03:00:29;;;;;;;5.15;3.78;;;4.10;99.90;;;;;;5091923;28;20328;-85
2021/01/14 03:02:56;;;;;;;5.35;2.90;;;4.20;99.90;;;;;;5093503;28;20296;-87
2021/01/14 03:05:22;;;;;;;3.75;2.50;;;4.10;99.90;;;;;;5093398;28;20319;-86
2021/01/14 03:07:48;;;;;;;5.10;3.70;;;3.90;99.90;;;;;;5093824;28;20295;-91
2021/01/14 03:10:15;;;;;;;5.15;3.50;;;3.90;99.90;;;;;;5093874;28;20288;-88
2021/01/14 03:12:41;;;;;;;5.13;4.03;;;3.90;99.90;;;;;;5094356;28;20291;-88
2021/01/14 03:15:08;;;;;;;3.67;3.30;;;3.80;99.90;;;;;;5092734;28;20291;-86
2021/01/14 03:17:37;;;;;;;1.95;1.75;;;3.80;99.90;;;;;;5093356;28;20600;-86
2021/01/14 03:20:06;;;;;;;5.70;2.95;;;3.70;99.90;;;;;;5093635;28;20233;-88
2021/01/14 03:22:37;;;;;;;4.03;3.45;;;3.70;99.90;;;;;;5093975;28;20648;-86
2021/01/14 03:25:05;;;;;;;3.25;2.47;;;3.70;99.90;;;;;;5093836;28;20315;-86
2021/01/14 03:27:35;;;;;;;2.80;2.33;;;3.70;99.90;;;;;;5093698;28;20571;-85
2021/01/14 03:30:01;;;;;;;2.55;1.92;;;3.70;99.90;;;;;;5090983;28;20682;-88
2021/01/14 03:32:28;;;;;;;3.10;2.80;;;3.60;99.90;;;;;;5092304;28;20254;-85
2021/01/14 03:34:55;;;;;;;3.15;2.90;;;3.50;99.90;;;;;;5093421;28;20288;-84
2021/01/14 03:37:21;;;;;;;2.60;2.20;;;3.40;99.90;;;;;;5092981;28;20227;-85
2021/01/14 03:39:50;;;;;;;3.33;2.60;;;3.40;99.90;;;;;;5092920;28;20239;-85
2021/01/14 03:42:19;;;;;;;2.80;2.60;;;3.30;99.90;;;;;;5093233;28;20205;-86
2021/01/14 03:44:46;;;;;;;2.45;1.80;;;3.30;99.90;;;;;;5093380;28;20232;-84
2021/01/14 03:47:13;;;;;;;3.33;2.00;;;3.20;99.90;;;;;;5091440;28;20237;-84
2021/01/14 03:49:39;;;;;;;2.58;2.38;;;3.20;99.90;;;;;;5093367;28;20287;-84
2021/01/14 03:52:09;;;;;;;3.30;2.33;;;3.20;99.90;;;;;;5093314;28;20287;-84
2021/01/14 03:54:35;;;;;;;3.83;2.38;;;3.20;99.90;;;;;;5093186;28;20205;-85
2021/01/14 03:57:02;;;;;;;2.30;1.90;;;3.10;99.90;;;;;;5093038;28;20295;-84
2021/01/14 03:59:28;;;;;;;3.35;2.75;;;3.20;99.90;;;;;;5093438;28;20296;-82
2021/01/14 04:01:59;;;;;;;2.67;2.47;;;3.20;99.90;;;;;;5091841;28;20279;-86
2021/01/14 04:04:26;;;;;;;3.38;2.83;;;3.10;99.90;;;;;;5092190;28;20236;-87
2021/01/14 04:06:52;;;;;;;3.25;2.75;;;3.10;99.90;;;;;;5093605;28;20292;-86
2021/01/14 04:09:21;;;;;;;3.97;2.95;;;3.00;99.90;;;;;;5092904;28;20216;-85
2021/01/14 04:11:47;;;;;;;6.40;2.70;;;3.00;99.90;;;;;;5094280;28;20394;-87
2021/01/14 04:14:14;;;;;;;3.40;2.90;;;3.00;99.90;;;;;;5098934;28;20287;-89
2021/01/14 04:16:40;;;;;;;3.50;2.83;;;3.00;99.90;;;;;;5103823;28;20205;-90
2021/01/14 04:19:07;;;;;;;7.20;3.00;;;2.90;99.90;;;;;;5120276;28;20231;-85
2021/01/14 04:21:34;;;;;;;2.30;2.10;;;3.00;99.90;;;;;;5086127;28;20200;-85
2021/01/14 04:24:00;;;;;;;4.50;3.45;;;3.00;99.90;;;;;;5114058;28;20220;-87
2021/01/14 04:26:27;;;;;;;2.50;2.30;;;3.00;99.90;;;;;;5098249;28;20287;-88
2021/01/14 04:28:54;;;;;;;5.40;3.53;;;3.00;99.90;;;;;;5097307;28;20323;-86
2021/01/14 04:31:20;;;;;;;4.80;2.85;;;3.00;99.90;;;;;;5096520;28;20232;-87
2021/01/14 04:33:46;;;;;;;11.80;4.20;;;2.90;99.90;;;;;;5097018;28;20288;-87
2021/01/14 04:36:16;;;;;;;5.40;2.97;;;2.90;99.90;;;;;;5096979;28;20292;-89
2021/01/14 04:38:42;;;;;;;4.18;3.05;;;2.90;99.90;;;;;;5097028;28;20208;-87
2021/01/14 04:41:09;;;;;;;5.70;4.22;;;2.90;99.90;;;;;;5096542;28;20278;-85
2021/01/14 04:43:36;;;;;;;6.05;3.15;;;2.90;99.90;;;;;;5096913;28;20209;-88
2021/01/14 04:46:05;;;;;;;7.47;6.10;;;2.80;99.90;;;;;;5095835;28;20288;-90
2021/01/14 04:48:34;;;;;;;3.90;3.45;;;2.80;99.90;;;;;;5097452;28;20236;-87
2021/01/14 04:51:06;;;;;;;4.38;3.35;;;2.80;99.90;;;;;;5097423;28;20208;-86
2021/01/14 04:53:35;;;;;;;3.50;3.10;;;2.80;99.90;;;;;;5096942;28;20200;-89
2021/01/14 04:56:04;;;;;;;5.75;4.60;;;2.70;99.90;;;;;;5096866;28;20253;-85
2021/01/14 04:58:31;;;;;;;5.40;3.85;;;2.80;99.90;;;;;;5096684;28;20296;-85
2021/01/14 05:00:59;;;;;;;4.20;3.47;;;2.90;99.90;;;;;;5095589;28;20291;-86
2021/01/14 05:03:27;;;;;;;6.68;4.65;;;2.90;99.90;;;;;;5096535;28;20219;-86
2021/01/14 05:05:54;;;;;;;3.25;2.88;;;2.90;99.90;;;;;;5096680;28;20209;-90
2021/01/14 05:08:27;;;;;;;4.60;4.13;;;2.90;99.90;;;;;;5096683;28;20652;-86
2021/01/14 05:10:54;;;;;;;6.78;2.88;;;2.90;99.90;;;;;;5091643;28;20209;-87
2021/01/14 05:13:21;;;;;;;4.88;3.28;;;2.90;99.90;;;;;;5078182;28;20251;-90
2021/01/14 05:15:47;;;;;;;7.68;3.90;;;2.80;99.90;;;;;;5075033;28;20300;-88
2021/01/14 05:18:15;;;;;;;5.78;4.30;;;2.80;99.90;;;;;;5076523;28;20571;-88
2021/01/14 05:20:41;;;;;;;3.25;2.85;;;2.80;99.90;;;;;;5076243;28;20268;-84
2021/01/14 05:23:08;;;;;;;6.25;3.90;;;2.80;99.90;;;;;;5075443;28;20608;-84
2021/01/14 05:25:35;;;;;;;5.15;4.32;;;2.80;99.90;;;;;;5076014;28;20297;-85
2021/01/14 05:28:12;;;;;;;9.98;4.78;;;2.80;99.90;;;;;;5075736;28;20283;-86
2021/01/14 05:30:40;;;;;;;7.28;4.55;;;2.80;99.90;;;;;;5075032;28;20288;-86
2021/01/14 05:33:16;;;;;;;7.25;5.20;;;2.80;99.90;;;;;;5073999;28;20202;-86
2021/01/14 05:35:50;;;;;;;9.20;5.10;;;2.80;99.90;;;;;;5076777;28;20664;-87
2021/01/14 05:38:25;;;;;;;9.95;4.05;;;2.80;99.90;;;;;;5076866;28;20248;-85
2021/01/14 05:43:48;;;;;;;8.48;4.22;;;2.80;99.90;;;;;;5075774;28;20204;-89
2021/01/14 05:46:18;;;;;;;3.67;3.33;;;2.80;99.90;;;;;;5094337;28;20216;-86
2021/01/14 05:48:46;;;;;;;8.27;4.15;;;2.60;99.90;;;;;;5093999;28;20291;-91
2021/01/14 05:51:18;;;;;;;6.90;3.80;;;2.60;99.90;;;;;;5095638;28;20638;-86
2021/01/14 05:53:54;;;;;;;4.43;3.67;;;2.50;99.90;;;;;;5099075;28;20293;-85
2021/01/14 05:56:35;;;;;;;3.95;3.45;;;2.40;99.90;;;;;;5107630;28;20204;-86
2021/01/14 05:59:04;;;;;;;6.65;4.13;;;2.50;99.90;;;;;;5102355;28;20240;-85
2021/01/14 06:01:30;;;;;;;7.00;4.50;;;2.50;99.90;;;;;;5101492;28;20246;-86
2021/01/14 06:04:17;;;;;;;12.55;10.30;;;2.40;99.90;;;;;;5105516;28;20262;-86
2021/01/14 06:06:44;;;;;;;5.40;4.03;;;2.50;99.90;;;;;;5096897;28;20322;-86
2021/01/14 06:09:12;;;;;;;4.95;3.47;;;2.40;99.90;;;;;;5095626;28;20233;-86
2021/01/14 06:11:39;;;;;;;5.43;3.72;;;2.40;99.90;;;;;;5095378;28;20667;-87
2021/01/14 06:14:06;;;;;;;4.15;3.70;;;2.40;99.90;;;;;;5094980;28;20208;-90
2021/01/14 06:16:49;;;;;;;4.20;3.80;;;2.50;99.90;;;;;;5094280;28;20228;-85
2021/01/14 06:19:17;;;;;;;11.15;5.38;;;2.40;99.90;;;;;;5095309;28;20197;-89
2021/01/14 06:21:46;;;;;;;6.35;4.90;;;2.40;99.90;;;;;;5095108;28;20711;-89
2021/01/14 06:24:19;;;;;;;4.85;4.00;;;2.50;99.90;;;;;;5094639;28;20233;-90
2021/01/14 06:26:46;;;;;;;5.95;4.78;;;2.40;99.90;;;;;;5094744;28;20266;-88
2021/01/14 06:29:17;;;;;;;5.45;3.40;;;2.40;99.90;;;;;;5094349;28;20256;-91
2021/01/14 06:31:44;;;;;;;7.03;4.25;;;2.40;99.90;;;;;;5093362;28;20291;-87
2021/01/14 06:34:13;;;;;;;6.32;3.00;;;2.30;99.90;;;;;;5094547;28;20212;-88
2021/01/14 06:36:41;;;;;;;7.80;4.90;;;2.40;99.90;;;;;;5093215;28;20201;-88
2021/01/14 06:39:12;;;;;;;8.20;4.32;;;2.40;99.90;;;;;;5095416;28;20205;-84
2021/01/14 06:41:42;;;;;;;12.02;6.78;;;2.20;99.90;;;;;;5094252;28;20770;-90
2021/01/14 06:44:11;;;;;;;14.25;7.75;;;2.30;99.90;;;;;;5094445;28;20292;-89
2021/01/14 06:46:37;;;;;;;9.13;6.93;;;2.40;99.90;;;;;;5093106;28;20287;-86
2021/01/14 06:49:12;;;;;;;7.55;5.03;;;2.40;99.90;;;;;;5094223;28;20667;-90
2021/01/14 06:51:56;;;;;;;7.07;5.43;;;2.50;99.90;;;;;;5093926;28;20603;-85
2021/01/14 06:54:24;;;;;;;6.00;5.20;;;2.50;99.90;;;;;;5096908;28;20209;-85
2021/01/14 06:57:08;;;;;;;8.00;6.18;;;2.50;99.90;;;;;;5096169;28;20239;-86
2021/01/14 06:59:38;;;;;;;8.45;5.75;;;2.40;99.90;;;;;;5094396;28;20730;-86
2021/01/14 07:02:41;;;;;;;6.45;5.85;;;2.50;99.90;;;;;;5094189;28;20389;-87
2021/01/14 07:05:11;;;;;;;7.93;7.13;;;2.50;99.90;;;;;;5094119;28;20657;-87
2021/01/14 07:07:47;;;;;;;9.45;6.10;;;2.50;99.90;;;;;;5093829;28;20291;-86
2021/01/14 07:10:15;;;;;;;8.10;5.72;;;2.50;99.90;;;;;;5092928;28;20611;-84
2021/01/14 07:12:43;;;;;;;8.80;6.85;;;2.50;99.90;;;;;;5094129;28;20236;-87
2021/01/14 07:15:16;;;;;;;7.47;5.13;;;2.40;99.90;;;;;;5093192;28;20719;-88
2021/01/14 07:17:43;;;;;;;9.68;6.47;;;2.50;99.90;;;;;;5094168;28;20209;-87
2021/01/14 07:20:14;;;;;;;8.70;6.32;;;2.50;99.90;;;;;;5094724;28;20205;-85
2021/01/14 07:22:46;;;;;;;8.32;6.25;;;2.40;99.90;;;;;;5093718;28;20246;-88
2021/01/14 07:25:15;;;;;;;11.63;6.72;;;2.40;99.90;;;;;;5093830;28;20272;-88
2021/01/14 07:27:42;;;;;;;11.65;5.93;;;2.50;99.90;;;;;;5094015;28;20276;-87
2021/01/14 07:30:10;;;;;;;7.45;5.13;;;2.50;99.90;;;;;;5093423;28;20254;-89
2021/01/14 07:32:56;;;;;;;10.05;6.13;;;2.60;99.90;;;;;;5093645;28;20205;-86
2021/01/14 07:35:37;;;;;;;8.90;8.10;;;2.60;99.90;;;;;;5093782;28;20588;-87
2021/01/14 07:38:05;;;;;;;12.32;6.05;;;2.60;99.90;;;;;;5093934;28;20205;-89
2021/01/14 07:40:32;;;;;;;12.63;11.23;;;2.50;99.90;;;;;;5093680;28;20354;-86
2021/01/14 07:43:03;;;;;;;11.10;8.15;;;2.50;99.90;;;;;;5093743;28;20239;-88
2021/01/14 07:45:31;;;;;;;8.98;6.90;;;2.50;99.90;;;;;;5092447;28;20665;-91
2021/01/14 07:48:16;;;;;;;10.20;7.72;;;2.50;99.90;;;;;;5093463;28;20636;-88
2021/01/14 07:50:51;;;;;;;13.68;8.57;;;2.60;99.90;;;;;;5093217;28;20731;-86
2021/01/14 07:53:21;;;;;;;9.65;7.32;;;2.60;99.90;;;;;;5094535;28;20200;-90
2021/01/14 07:55:50;;;;;;;10.15;7.30;;;2.60;99.90;;;;;;5090479;28;20254;-87
2021/01/14 07:58:35;;;;;;;15.50;9.60;;;2.60;99.90;;;;;;5094133;28;20205;-90
2021/01/14 08:01:05;;;;;;;8.15;5.25;;;2.60;99.90;;;;;;5091608;28;20295;-91
2021/01/14 08:03:33;;;;;;;12.45;8.40;;;2.60;99.90;;;;;;5093902;28;20205;-89
2021/01/14 08:06:17;;;;;;;9.05;6.57;;;2.60;99.90;;;;;;5093722;28;20225;-86
2021/01/14 08:09:01;;;;;;;15.50;10.30;;;2.60;99.90;;;;;;5078655;28;20450;-93
2021/01/14 08:11:29;;;;;;;8.55;6.60;;;2.70;99.90;;;;;;5074928;28;20229;-85
2021/01/14 08:14:26;;;;;;;15.57;7.80;;;2.70;99.90;;;;;;5092708;28;20293;-80
2021/01/14 08:16:53;;;;;;;9.38;8.18;;;2.70;99.90;;;;;;5093983;28;20201;-93
2021/01/14 08:19:31;;;;;;;9.23;7.80;;;2.60;99.90;;;;;;5093823;28;20235;-88
2021/01/14 08:22:11;;;;;;;14.82;8.35;;;2.60;99.90;;;;;;5093618;28;20212;-88
2021/01/14 08:24:46;;;;;;;13.55;8.32;;;2.70;99.90;;;;;;5093760;28;20239;-88
2021/01/14 08:27:14;;;;;;;13.15;9.27;;;2.60;99.90;;;;;;5094532;28;20698;-89
2021/01/14 08:29:50;;;;;;;13.95;10.50;;;2.70;99.90;;;;;;5096667;28;20209;-91
2021/01/14 08:32:37;;;;;;;11.18;7.65;;;2.70;99.90;;;;;;5094075;28;20208;-92
2021/01/14 08:35:07;;;;;;;11.95;10.00;;;2.80;99.90;;;;;;5074850;28;20324;-91
2021/01/14 08:37:35;;;;;;;12.73;8.05;;;2.70;99.90;;;;;;5073474;28;20295;-86
2021/01/14 08:40:06;;;;;;;9.90;7.90;;;2.80;99.90;;;;;;5072653;28;20628;-89
2021/01/14 08:42:35;;;;;;;13.18;8.70;;;2.80;99.90;;;;;;5072003;28;20206;-88
2021/01/14 08:45:10;;;;;;;11.98;8.32;;;2.80;99.90;;;;;;5072509;28;20259;-88
2021/01/14 08:48:03;;;;;;;10.00;7.78;;;2.70;99.90;;;;;;5072023;28;20669;-87
2021/01/14 08:50:41;;;;;;;12.65;9.48;;;2.70;99.90;;;;;;5052457;28;20628;-87
2021/01/14 08:53:08;;;;;;;13.07;8.63;;;2.70;99.90;;;;;;5073823;28;20243;-89
2021/01/14 08:55:35;;;;;;;12.55;8.55;;;2.70;99.90;;;;;;5072187;28;20608;-89
2021/01/14 08:58:05;;;;;;;10.70;7.72;;;2.80;99.90;;;;;;5072196;28;20732;-85
2021/01/14 09:00:33;;;;;;;9.38;7.78;;;2.90;99.90;;;;;;5074733;28;20210;-88
2021/01/14 09:02:59;;;;;;;13.70;8.23;;;2.90;99.90;;;;;;5077569;28;20242;-88
2021/01/14 09:05:28;;;;;;;12.60;9.65;;;3.00;99.90;;;;;;5095766;28;20433;-90
2021/01/14 09:08:09;;;;;;;13.07;8.02;;;3.10;99.90;;;;;;5096056;28;20664;-89
2021/01/14 09:10:44;;;;;;;13.60;8.75;;;2.90;99.90;;;;;;5096253;28;20201;-87
2021/01/14 09:13:11;;;;;;;13.43;9.50;;;2.90;99.90;;;;;;5096579;28;20208;-89
2021/01/14 09:15:38;;;;;;;8.93;7.18;;;2.90;99.90;;;;;;5094718;28;20292;-88
2021/01/14 09:18:05;;;;;;;13.63;8.82;;;2.90;99.90;;;;;;5096469;28;20627;-92
2021/01/14 09:20:31;;;;;;;27.17;9.57;;;3.00;99.90;;;;;;5096046;28;20241;-90
2021/01/14 09:23:17;;;;;;;10.02;7.03;;;3.00;99.90;;;;;;5095686;28;20269;-88
2021/01/14 09:25:45;;;;;;;12.32;7.93;;;3.00;99.90;;;;;;5075703;28;20257;-90
2021/01/14 09:28:12;;;;;;;11.27;7.65;;;3.00;99.90;;;;;;5075143;28;20299;-88
2021/01/14 09:30:39;;;;;;;9.85;7.28;;;3.10;99.90;;;;;;5074715;28;20244;-88
2021/01/14 09:33:05;;;;;;;13.88;9.23;;;3.20;99.90;;;;;;5075324;28;20294;-87
2021/01/14 09:35:32;;;;;;;13.55;10.10;;;3.10;99.90;;;;;;5088938;28;20223;-88
2021/01/14 09:37:58;;;;;;;11.90;7.82;;;3.10;99.90;;;;;;5095750;28;20663;-89
2021/01/14 09:40:25;;;;;;;12.18;7.30;;;3.00;99.90;;;;;;5095493;28;20228;-86
2021/01/14 09:42:53;;;;;;;12.88;7.63;;;3.20;99.90;;;;;;5095439;28;20680;-90
2021/01/14 09:45:21;;;;;;;9.43;6.88;;;3.30;99.90;;;;;;5094731;28;20327;-92
2021/01/14 09:47:52;;;;;;;15.05;8.35;;;3.40;99.90;;;;;;5095255;28;20196;-88
2021/01/14 09:50:19;;;;;;;9.48;6.43;;;3.50;99.90;;;;;;5095061;28;20232;-88
2021/01/14 09:52:46;;;;;;;11.80;9.15;;;3.40;99.90;;;;;;5094431;28;20437;-86
2021/01/14 09:55:14;;;;;;;9.90;7.97;;;3.40;99.90;;;;;;5095976;28;20228;-88
2021/01/14 09:57:46;;;;;;;9.68;7.00;;;3.40;99.90;;;;;;5093801;28;20488;-88
2021/01/14 10:00:23;;;;;;;10.25;7.35;;;3.30;99.90;;;;;;5073437;28;20205;-85
2021/01/14 10:02:57;;;;;;;11.57;7.65;;;3.20;99.90;;;;;;5070223;28;20201;-85
2021/01/14 10:05:28;;;;;;;8.45;6.78;;;3.40;99.90;;;;;;5087035;28;20235;-85
2021/01/14 10:08:00;;;;;;;11.30;7.85;;;3.40;99.90;;;;;;5093732;28;20201;-83
2021/01/14 10:10:29;;;;;;;12.80;7.35;;;3.50;99.90;;;;;;5075512;28;20638;-87
2021/01/14 10:12:58;;;;;;;9.77;7.57;;;3.60;99.90;;;;;;5074956;28;20611;-87
2021/01/14 10:15:26;;;;;;;10.60;8.45;;;3.50;99.90;;;;;;5081942;28;20189;-91
2021/01/14 10:18:00;;;;;;;7.80;7.00;;;3.50;99.90;;;;;;5094479;28;20445;-89
2021/01/14 10:20:32;;;;;;;12.07;10.98;;;3.30;99.90;;;;;;5095525;28;20211;-93
2021/01/14 10:22:58;;;;;;;7.07;5.55;;;3.40;99.90;;;;;;5096176;28;20567;-91
2021/01/14 10:25:25;;;;;;;8.27;7.47;;;3.30;99.90;;;;;;5095528;28;20319;-92
2021/01/14 10:28:03;;;;;;;10.50;7.60;;;3.30;99.90;;;;;;5094982;28;20233;-90
2021/01/14 10:30:38;;;;;;;8.05;6.68;;;3.50;99.90;;;;;;5095218;28;20580;-92
2021/01/14 10:33:06;;;;;;;10.43;8.27;;;3.60;99.90;;;;;;5098408;28;20200;-91
2021/01/14 10:35:35;;;;;;;8.45;6.55;;;3.50;99.90;;;;;;5098229;28;20259;-93
2021/01/14 10:38:03;;;;;;;10.70;6.25;;;3.30;99.90;;;;;;5094836;28;20208;-90
2021/01/14 10:40:36;;;;;;;7.55;6.13;;;3.60;99.90;;;;;;5038690;28;20214;-85
2021/01/14 10:43:02;;;;;;;10.55;6.63;;;3.60;99.90;;;;;;5074133;28;20208;-87
2021/01/14 10:45:32;;;;;;;8.40;7.47;;;3.60;99.90;;;;;;5074374;28;20225;-88
2021/01/14 10:48:13;;;;;;;7.13;5.30;;;3.60;99.90;;;;;;5078307;28;20197;-90
2021/01/14 10:50:56;;;;;;;9.13;6.25;;;3.60;99.90;;;;;;5087957;28;20205;-91
2021/01/14 10:53:27;;;;;;;8.07;7.03;;;3.70;99.90;;;;;;5076627;28;20657;-91
2021/01/14 10:56:11;;;;;;;10.07;6.80;;;3.70;99.90;;;;;;5087645;28;20198;-90
2021/01/14 10:58:40;;;;;;;11.65;6.47;;;3.70;99.90;;;;;;5079664;28;20288;-88
2021/01/14 11:01:17;;;;;;;10.27;7.22;;;3.70;99.90;;;;;;5081459;28;20258;-89
2021/01/14 11:03:43;;;;;;;13.90;8.00;;;3.60;99.90;;;;;;5078345;28;20232;-87
2021/01/14 11:06:12;;;;;;;12.48;7.57;;;3.70;99.90;;;;;;5078693;28;20716;-90
2021/01/14 11:08:40;;;;;;;9.82;6.35;;;3.60;99.90;;;;;;5085320;28;20229;-91
2021/01/14 11:11:08;;;;;;;6.80;6.00;;;3.50;99.90;;;;;;5091379;28;20212;-87
2021/01/14 11:13:39;;;;;;;8.97;7.93;;;3.70;99.90;;;;;;5087092;28;20569;-86
2021/01/14 11:16:06;;;;;;;10.63;6.95;;;3.70;99.90;;;;;;5086327;28;20474;-89
2021/01/14 11:18:37;;;;;;;6.82;6.05;;;3.90;99.90;;;;;;5088173;28;20248;-88
2021/01/14 11:21:04;;;;;;;11.30;6.78;;;3.80;99.90;;;;;;5086277;28;20233;-87
2021/01/14 11:23:30;;;;;;;7.88;6.90;;;3.90;99.90;;;;;;5087888;28;20205;-88
2021/01/14 11:25:57;;;;;;;7.43;6.45;;;4.00;99.90;;;;;;5088570;28;20243;-87
2021/01/14 11:28:23;;;;;;;9.00;6.15;;;4.10;99.90;;;;;;5089487;28;20225;-90
2021/01/14 11:30:50;;;;;;;6.88;4.70;;;4.00;99.90;;;;;;5083847;28;20251;-90
2021/01/14 11:33:16;;;;;;;7.60;6.80;;;4.10;99.90;;;;;;5076951;28;20209;-86
2021/01/14 11:35:46;;;;;;;6.43;4.88;;;4.00;99.90;;;;;;5076171;28;20233;-86
2021/01/14 11:38:12;;;;;;;6.90;5.00;;;4.00;99.90;;;;;;5077156;28;20204;-91
2021/01/14 11:40:39;;;;;;;8.48;5.05;;;3.90;99.90;;;;;;5095247;28;20258;-87
2021/01/14 11:43:05;;;;;;;12.45;5.82;;;3.70;99.90;;;;;;5096620;28;20231;-88
2021/01/14 11:45:31;;;;;;;7.32;5.65;;;3.90;99.90;;;;;;5094810;28;20244;-92
2021/01/14 11:47:58;;;;;;;12.00;5.03;;;3.90;99.90;;;;;;5095914;28;20245;-87
2021/01/14 11:50:24;;;;;;;11.93;5.95;;;3.90;99.90;;;;;;5097786;28;20244;-87
2021/01/14 11:52:52;;;;;;;5.88;4.72;;;3.90;99.90;;;;;;5096029;28;20208;-88
2021/01/14 11:55:18;;;;;;;22.38;15.38;;;3.80;99.90;;;;;;5094100;28;20204;-87
2021/01/14 11:57:45;;;;;;;8.80;6.78;;;4.00;99.90;;;;;;5096344;28;20334;-89
2021/01/14 12:00:13;;;;;;;9.32;6.70;;;4.10;99.90;;;;;;5089963;28;20477;-88
2021/01/14 12:02:40;;;;;;;8.52;5.35;;;4.10;99.90;;;;;;5074311;28;20213;-89
2021/01/14 12:05:07;;;;;;;7.72;5.18;;;4.00;99.90;;;;;;5073069;28;20229;-89
2021/01/14 12:07:34;;;;;;;9.93;6.95;;;4.10;99.90;;;;;;5073461;28;20280;-87
2021/01/14 12:10:01;;;;;;;5.50;5.00;;;4.10;99.90;;;;;;5073309;28;20212;-89
2021/01/14 12:12:28;;;;;;;8.30;5.75;;;4.30;99.90;;;;;;5073429;28;20201;-88
2021/01/14 12:14:54;;;;;;;5.07;4.55;;;4.20;99.90;;;;;;5087084;28;20244;-93
2021/01/14 12:17:21;;;;;;;9.07;5.85;;;4.20;99.90;;;;;;5093474;28;20197;-92
2021/01/14 12:19:47;;;;;;;11.93;5.30;;;4.10;99.90;;;;;;5093807;28;20205;-88
2021/01/14 12:22:14;;;;;;;6.95;5.70;;;4.10;99.90;;;;;;5093834;28;20232;-92
2021/01/14 12:24:45;;;;;;;9.43;5.90;;;4.10;99.90;;;;;;5093845;28;20225;-85
2021/01/14 12:27:12;;;;;;;16.05;5.13;;;4.10;99.90;;;;;;5093466;28;20264;-87
2021/01/14 12:29:39;;;;;;;6.68;5.25;;;4.10;99.90;;;;;;5093996;28;20236;-91
2021/01/14 12:32:06;;;;;;;5.25;4.60;;;4.00;99.90;;;;;;5092772;28;20205;-92
2021/01/14 12:34:33;;;;;;;15.00;10.40;;;4.00;99.90;;;;;;5097933;28;20291;-87
2021/01/14 12:36:59;;;;;;;7.75;5.55;;;4.00;99.90;;;;;;5082060;28;20286;-92
2021/01/14 12:39:31;;;;;;;10.68;5.05;;;4.00;99.90;;;;;;5077446;28;20641;-88
2021/01/14 12:41:58;;;;;;;5.70;4.72;;;3.80;99.90;;;;;;5077554;28;20224;-90
2021/01/14 12:44:25;;;;;;;6.95;5.07;;;3.90;99.90;;;;;;5077387;28;20652;-88
2021/01/14 12:46:52;;;;;;;8.27;4.90;;;4.00;99.90;;;;;;5077943;28;20206;-91
2021/01/14 12:49:19;;;;;;;12.93;5.20;;;4.00;99.90;;;;;;5077289;28;20323;-89
2021/01/14 12:51:46;;;;;;;7.97;5.60;;;4.00;99.90;;;;;;5077758;28;20236;-92
2021/01/14 12:54:13;;;;;;;7.95;5.05;;;4.00;99.90;;;;;;5077724;28;20229;-89
2021/01/14 12:56:41;;;;;;;9.70;5.20;;;4.20;99.90;;;;;;5077317;28;20633;-93
2021/01/14 12:59:08;;;;;;;5.75;4.65;;;4.10;99.90;;;;;;5079476;28;20203;-92
2021/01/14 13:01:39;;;;;;;6.15;5.15;;;4.20;99.90;;;;;;5076417;28;20201;-90
2021/01/14 13:04:06;;;;;;;6.68;4.80;;;4.10;99.90;;;;;;5079102;28;20201;-90
2021/01/14 13:06:35;;;;;;;9.05;5.50;;;3.90;99.90;;;;;;5077992;28;20248;-92
2021/01/14 13:09:03;;;;;;;7.05;4.80;;;3.80;99.90;;;;;;5096397;28;20209;-90
2021/01/14 13:11:30;;;;;;;5.95;4.68;;;3.80;99.90;;;;;;5098387;28;20247;-89